Main page
METAR-TAF:

METAR-TAF

Airports :

Canoas Air Force Base

Porto Alegre, Rio Grande do Sul, Brazil

latitude: 30-01S, longitude: 051-13W, elevation: 47 m

Current weather observation

The report was made 54 minutes ago, at 17:00 UTC
Wind 10 kt from the West/Southwest, varying between South/Southwest and West
Temperature 30°C
Humidity 46%
Pressure 1008 hPa
Visibility 10 km or more
Few clouds at a height of 3500 ft

METAR: SBCO 251700Z 25010KT 210V280 9999 FEW035 30/17 Q1008

Time: 14:54 (17:54 UTC)

Forecast

The report was made 8 hours and 24 minutes ago, at 09:30 UTC
Forecast valid from 25 at 12 UTC to 25 at 24 UTC
Wind 6 kt from the East/Southeast
Visibility 10 km or more
no clouds below 1500 m and no cumulonimbus
Becoming
from 25 at 12 UTC to 25 at 14 UTC
Wind 8 kt from the Northwest

TAF: SBCO 250930Z 2512/2524 11006KT CAVOK TN22/2512Z TX33/2518Z BECMG 2512/2514 31008KT RMK PER

Weather observations and forecasts of more than 4000 airports (METAR and TAF reports).

The available stations are represented by yellow and red dots on the map.

Hover mouse over dot to see the name of the station.

Then click to see weather observations and forecasts.

To change the map : click on the green buttons with a black cross to zoom in, on the green button with a dash to zoom out, or on the green arrows for adjacent maps.


METAR-TAF: